createdAt,value
2023-03-05T00:00:45.665Z,19.29999924
2023-03-05T00:01:46.610Z,21
2023-03-05T00:02:47.589Z,21
2023-03-05T00:03:48.326Z,20.89999962
2023-03-05T00:04:50.143Z,19.89999962
2023-03-05T00:05:51.755Z,21.5
2023-03-05T00:06:52.623Z,21.29999924
2023-03-05T00:07:53.493Z,21.5
2023-03-05T00:08:54.305Z,19.39999962
2023-03-05T00:09:55.592Z,20.70000076
2023-03-05T00:11:26.923Z,21.79999924
2023-03-05T00:12:27.866Z,20.79999924
2023-03-05T00:13:28.742Z,18.70000076
2023-03-05T00:14:29.611Z,20.89999962
2023-03-05T00:15:31.241Z,21.10000038
2023-03-05T00:16:32.691Z,19.89999962
2023-03-05T00:17:33.653Z,20.89999962
2023-03-05T00:18:34.572Z,21.10000038
2023-03-05T00:19:35.452Z,22.20000076
2023-03-05T00:20:36.302Z,21.10000038
2023-03-05T00:21:37.772Z,21.60000038
2023-03-05T00:22:38.853Z,20.39999962
2023-03-05T00:23:39.752Z,22.10000038
2023-03-05T00:24:40.874Z,21.20000076
2023-03-05T00:25:42.717Z,22.20000076
2023-03-05T00:26:43.441Z,20.5
2023-03-05T00:27:44.460Z,22.29999924
2023-03-05T00:28:45.384Z,21.10000038
2023-03-05T00:29:46.289Z,21.10000038
2023-03-05T00:30:47.277Z,22.89999962
2023-03-05T00:31:48.053Z,22.39999962
2023-03-05T00:32:48.968Z,21.29999924
2023-03-05T00:33:49.924Z,21.39999962
2023-03-05T00:34:51.024Z,21.89999962
2023-03-05T00:35:52.781Z,21.10000038
2023-03-05T00:36:53.447Z,21.60000038
2023-03-05T00:37:54.320Z,21.60000038
2023-03-05T00:39:26.019Z,22.60000038
2023-03-05T00:40:27.048Z,20.29999924
2023-03-05T00:41:27.977Z,22.5
2023-03-05T00:42:28.670Z,22.60000038
2023-03-05T00:43:30.177Z,21.89999962
2023-03-05T00:44:31.251Z,23.39999962
2023-03-05T00:45:32.288Z,21.70000076
2023-03-05T00:46:34.125Z,21
2023-03-05T00:47:34.874Z,21.20000076
2023-03-05T00:48:36.689Z,22
2023-03-05T00:49:37.645Z,21.5
2023-03-05T00:50:38.595Z,23
2023-03-05T00:51:39.586Z,21
2023-03-05T00:52:40.728Z,22.10000038
2023-03-05T00:53:41.540Z,22.20000076
2023-03-05T00:54:42.367Z,22.89999962
2023-03-05T00:55:43.448Z,22.10000038
2023-03-05T00:56:45.318Z,22.10000038
2023-03-05T00:57:46.164Z,22.5
2023-03-05T00:58:47.551Z,22.60000038
2023-03-05T00:59:48.368Z,21.89999962
2023-03-05T01:00:49.387Z,23.5
2023-03-05T01:01:50.582Z,23.60000038
2023-03-05T01:02:51.636Z,21.29999924
2023-03-05T01:03:53.079Z,22.89999962
2023-03-05T01:04:53.940Z,21.89999962
2023-03-05T01:06:26.671Z,23.10000038
2023-03-05T01:07:27.592Z,23.10000038
2023-03-05T01:08:28.419Z,21.89999962
2023-03-05T01:09:29.221Z,21.60000038
2023-03-05T01:10:30.173Z,23.20000076
2023-03-05T01:11:31.138Z,22.60000038
2023-03-05T01:12:32.162Z,22.60000038
2023-03-05T01:13:33.238Z,25.5
2023-03-05T01:14:34.012Z,22.5
2023-03-05T01:15:34.898Z,21.89999962
2023-03-05T01:16:36.622Z,24
2023-03-05T01:17:37.547Z,23.10000038
2023-03-05T01:18:38.626Z,22.60000038
2023-03-05T01:19:39.454Z,23.70000076
2023-03-05T01:20:40.334Z,22.79999924
2023-03-05T01:21:42.140Z,23.60000038
2023-03-05T01:22:43.297Z,23.10000038
2023-03-05T01:23:44.424Z,22.10000038
2023-03-05T01:24:45.357Z,22.89999962
2023-03-05T01:25:46.180Z,24
2023-03-05T01:26:48.039Z,25.10000038
2023-03-05T01:27:48.986Z,23.70000076
2023-03-05T01:28:50.008Z,24.10000038
2023-03-05T01:29:50.851Z,23.70000076
2023-03-05T01:30:51.718Z,24.79999924
2023-03-05T01:31:52.593Z,24.29999924
2023-03-05T01:32:53.460Z,23.10000038
2023-03-05T01:33:54.940Z,22.60000038
2023-03-05T01:35:27.234Z,24.5
2023-03-05T01:36:28.608Z,23.29999924
2023-03-05T01:37:29.405Z,23.79999924
2023-03-05T01:38:30.325Z,23.39999962
2023-03-05T01:39:31.312Z,25.10000038
2023-03-05T01:40:32.200Z,23.60000038
2023-03-05T01:41:33.039Z,23.89999962
2023-03-05T01:42:34.004Z,21.20000076
2023-03-05T01:43:34.838Z,23.89999962
2023-03-05T01:44:35.843Z,23.60000038
2023-03-05T01:45:36.995Z,23.10000038
2023-03-05T01:46:38.690Z,23.5
2023-03-05T01:47:39.585Z,22.60000038
2023-03-05T01:48:41.016Z,23.79999924
2023-03-05T01:49:41.994Z,24.39999962
2023-03-05T01:50:42.876Z,24.29999924
2023-03-05T01:51:43.857Z,22.89999962
2023-03-05T01:52:44.760Z,24.60000038
2023-03-05T01:53:46.655Z,23.70000076
2023-03-05T01:54:47.596Z,23.79999924
2023-03-05T01:55:48.511Z,22.79999924
2023-03-05T01:56:50.202Z,23.29999924
2023-03-05T01:57:51.084Z,22.39999962
2023-03-05T01:58:51.911Z,23.5
2023-03-05T01:59:52.868Z,24.60000038
2023-03-05T02:00:53.791Z,23.70000076
2023-03-05T02:02:25.396Z,24.29999924
2023-03-05T02:03:26.474Z,24.70000076
2023-03-05T02:04:28.144Z,24.70000076
2023-03-05T02:05:29.009Z,24.79999924
2023-03-05T02:06:30.743Z,25.20000076
2023-03-05T02:07:31.668Z,24.29999924
2023-03-05T02:08:32.751Z,24.39999962
2023-03-05T02:09:33.608Z,24.70000076
2023-03-05T02:10:34.537Z,25.10000038
2023-03-05T02:11:35.437Z,25.20000076
2023-03-05T02:12:36.370Z,24.10000038
2023-03-05T02:13:38.192Z,23.79999924
2023-03-05T02:14:39.139Z,23.60000038
2023-03-05T02:15:40.001Z,23.60000038
2023-03-05T02:16:41.738Z,24.39999962
2023-03-05T02:17:42.691Z,24.39999962
2023-03-05T02:18:43.670Z,23.10000038
2023-03-05T02:19:44.669Z,24.20000076
2023-03-05T02:20:45.656Z,24.29999924
2023-03-05T02:21:46.428Z,24.10000038
2023-03-05T02:22:47.454Z,23.39999962
2023-03-05T02:23:48.389Z,25.20000076
2023-03-05T02:24:49.306Z,23.5
2023-03-05T02:25:50.295Z,24.70000076
2023-03-05T02:26:51.637Z,24.70000076
2023-03-05T02:27:52.565Z,25.20000076
2023-03-05T02:28:53.576Z,24.79999924
2023-03-05T02:30:24.973Z,26.29999924
2023-03-05T02:31:25.942Z,23.79999924
2023-03-05T02:32:26.708Z,24.89999962
2023-03-05T02:33:27.534Z,24.39999962
2023-03-05T02:34:28.536Z,24.29999924
2023-03-05T02:35:29.553Z,25.29999924
2023-03-05T02:36:30.417Z,24.70000076
2023-03-05T02:37:32.067Z,24.10000038
2023-03-05T02:38:32.905Z,23.20000076
2023-03-05T02:39:33.840Z,25.70000076
2023-03-05T02:40:34.877Z,23.5
2023-03-05T02:41:35.898Z,24.70000076
2023-03-05T02:42:36.666Z,26.70000076
2023-03-05T02:43:37.636Z,25
2023-03-05T02:44:38.586Z,24.60000038
2023-03-05T02:45:39.662Z,24.70000076
2023-03-05T02:46:41.186Z,25.5
2023-03-05T02:47:42.051Z,24.5
2023-03-05T02:48:42.855Z,24.70000076
2023-03-05T02:49:43.727Z,24.39999962
2023-03-05T02:50:44.862Z,23.70000076
2023-03-05T02:51:46.774Z,22.79999924
2023-03-05T02:52:47.637Z,23.29999924
2023-03-05T02:53:48.507Z,24.60000038
2023-03-05T02:54:49.320Z,24.60000038
2023-03-05T02:55:50.306Z,25.39999962
2023-03-05T02:56:52.656Z,23.29999924
2023-03-05T02:57:54.004Z,24.5
2023-03-05T02:59:25.301Z,24.39999962
2023-03-05T03:00:26.234Z,24.79999924
2023-03-05T03:01:27.281Z,23.60000038
2023-03-05T03:02:28.260Z,25.29999924
2023-03-05T03:03:29.430Z,24.60000038
2023-03-05T03:04:31.122Z,24.20000076
2023-03-05T03:05:31.939Z,23.5
2023-03-05T03:06:32.900Z,24.89999962
2023-03-05T03:07:34.655Z,23.39999962
2023-03-05T03:08:35.598Z,24.89999962
2023-03-05T03:09:36.547Z,25.20000076
2023-03-05T03:10:37.459Z,25.79999924
2023-03-05T03:11:38.354Z,23.89999962
2023-03-05T03:12:40.202Z,25
2023-03-05T03:13:41.413Z,24.70000076
2023-03-05T03:14:42.419Z,25
2023-03-05T03:15:43.362Z,24.60000038
2023-03-05T03:16:45.185Z,23.10000038
2023-03-05T03:17:46.333Z,24.79999924
2023-03-05T03:18:48.170Z,26.10000038
2023-03-05T03:19:49.177Z,25.89999962
2023-03-05T03:20:50.019Z,23.5
2023-03-05T03:21:50.940Z,25.89999962
2023-03-05T03:22:52.848Z,24.70000076
2023-03-05T03:24:24.565Z,25
2023-03-05T03:25:25.531Z,25.29999924
2023-03-05T03:26:26.444Z,24.89999962
2023-03-05T03:27:28.167Z,25.89999962
2023-03-05T03:28:29.221Z,25.79999924
2023-03-05T03:29:30.137Z,25.20000076
2023-03-05T03:30:31.262Z,25
2023-03-05T03:31:33.163Z,24.89999962
2023-03-05T03:32:34.036Z,25
2023-03-05T03:33:34.941Z,24.39999962
2023-03-05T03:34:35.908Z,24.29999924
2023-03-05T03:35:36.907Z,23.79999924
2023-03-05T03:36:37.836Z,24.10000038
2023-03-05T03:37:39.603Z,23.79999924
2023-03-05T03:38:40.804Z,27.10000038
2023-03-05T03:39:41.837Z,23.79999924
2023-03-05T03:40:42.887Z,25.39999962
2023-03-05T03:41:43.859Z,24.70000076
2023-03-05T03:42:44.824Z,24.89999962
2023-03-05T03:43:45.824Z,23.70000076
2023-03-05T03:44:47.209Z,24.60000038
2023-03-05T03:45:48.276Z,25.29999924
2023-03-05T03:46:49.222Z,26.29999924
2023-03-05T03:47:51.179Z,24.89999962
2023-03-05T03:48:52.142Z,24.89999962
2023-03-05T03:49:53.328Z,24.70000076
2023-03-05T03:51:24.784Z,23.70000076
2023-03-05T03:52:25.866Z,24.60000038
2023-03-05T03:53:26.762Z,25.39999962
2023-03-05T03:54:27.736Z,24.70000076
2023-03-05T03:55:28.486Z,26.60000038
2023-03-05T03:56:29.448Z,24.89999962
2023-03-05T03:57:31.171Z,24.60000038
2023-03-05T03:58:32.127Z,25.20000076
2023-03-05T03:59:33.558Z,24.70000076
2023-03-05T04:00:34.327Z,24.39999962
2023-03-05T04:01:35.246Z,23.20000076
2023-03-05T04:02:36.291Z,25.10000038
2023-03-05T04:03:37.318Z,25.5
2023-03-05T04:04:39.229Z,25.39999962
2023-03-05T04:05:40.000Z,24.79999924
2023-03-05T04:06:41.109Z,25.10000038
2023-03-05T04:07:42.708Z,26.79999924
2023-03-05T04:08:43.690Z,24.60000038
2023-03-05T04:09:44.599Z,27.39999962
2023-03-05T04:10:45.407Z,25.20000076
2023-03-05T04:11:46.290Z,26.5
2023-03-05T04:12:47.185Z,25.60000038
2023-03-05T04:13:48.222Z,26.20000076
2023-03-05T04:14:49.120Z,25.70000076
2023-03-05T04:15:50.165Z,26.70000076
2023-03-05T04:16:51.004Z,24.89999962
2023-03-05T04:17:53.040Z,25.5
2023-03-05T04:19:24.454Z,23.89999962
2023-03-05T04:20:25.463Z,24.60000038
2023-03-05T04:21:26.320Z,26.89999962
2023-03-05T04:22:28.076Z,25.29999924
2023-03-05T04:23:28.895Z,24.79999924
2023-03-05T04:24:29.861Z,24.10000038
2023-03-05T04:25:30.932Z,25.39999962
2023-03-05T04:26:31.873Z,25.60000038
2023-03-05T04:27:33.644Z,26.20000076
2023-03-05T04:28:34.442Z,24.20000076
2023-03-05T04:29:35.417Z,26.20000076
2023-03-05T04:30:36.455Z,25.5
2023-03-05T04:31:37.415Z,27.10000038
2023-03-05T04:32:38.355Z,26.60000038
2023-03-05T04:33:39.186Z,25.10000038
2023-03-05T04:34:40.125Z,26.10000038
2023-03-05T04:35:41.393Z,25.79999924
2023-03-05T04:36:42.135Z,25.89999962
2023-03-05T04:37:43.631Z,26.39999962
2023-03-05T04:38:44.470Z,25.89999962
2023-03-05T04:39:45.398Z,25.39999962
2023-03-05T04:40:46.348Z,25.89999962
2023-03-05T04:41:47.284Z,26
2023-03-05T04:42:48.258Z,25.70000076
2023-03-05T04:43:49.152Z,24.39999962
2023-03-05T04:44:50.548Z,24.60000038
2023-03-05T04:45:51.468Z,25.5
2023-03-05T04:46:52.873Z,26.10000038
2023-03-05T04:48:25.071Z,26
2023-03-05T04:49:25.890Z,26.20000076
2023-03-05T04:50:26.880Z,24.20000076
2023-03-05T04:51:28.776Z,26.10000038
2023-03-05T04:52:29.625Z,25.70000076
2023-03-05T04:53:30.633Z,25.79999924
2023-03-05T04:54:31.550Z,27.89999962
2023-03-05T04:55:32.467Z,25.39999962
2023-03-05T04:56:33.372Z,26.60000038
2023-03-05T04:57:35.165Z,26.89999962
2023-03-05T04:58:36.615Z,24.89999962
2023-03-05T04:59:37.497Z,24.39999962
2023-03-05T05:00:38.339Z,25.5
2023-03-05T05:01:39.312Z,24.29999924
2023-03-05T05:02:40.275Z,26.79999924
2023-03-05T05:03:41.237Z,26
2023-03-05T05:04:42.281Z,26
2023-03-05T05:05:43.139Z,27.20000076
2023-03-05T05:06:44.080Z,25.5
2023-03-05T05:07:45.679Z,25.29999924
2023-03-05T05:08:46.601Z,24.79999924
2023-03-05T05:09:47.715Z,25.10000038
2023-03-05T05:10:48.583Z,24.89999962
2023-03-05T05:11:49.471Z,24.29999924
2023-03-05T05:12:50.316Z,26.70000076
2023-03-05T05:13:51.318Z,26.70000076
2023-03-05T05:14:52.742Z,25.60000038
2023-03-05T05:16:24.238Z,24.89999962
2023-03-05T05:17:25.676Z,26.60000038
2023-03-05T05:18:26.500Z,26.89999962
2023-03-05T05:19:28.194Z,26.79999924
2023-03-05T05:20:29.072Z,24.70000076
2023-03-05T05:21:30.109Z,24.89999962
2023-03-05T05:22:31.068Z,25.20000076
2023-03-05T05:23:31.930Z,25.39999962
2023-03-05T05:24:32.976Z,25.10000038
2023-03-05T05:25:34.024Z,24.79999924
2023-03-05T05:26:35.688Z,24.70000076
2023-03-05T05:27:36.635Z,26.5
2023-03-05T05:28:37.566Z,24.89999962
2023-03-05T05:29:38.542Z,26
2023-03-05T05:30:39.542Z,27.60000038
2023-03-05T05:31:40.972Z,27.20000076
2023-03-05T05:32:42.151Z,25.39999962
2023-03-05T05:33:43.569Z,24.89999962
2023-03-05T05:34:44.396Z,26.5
2023-03-05T05:35:45.512Z,25.29999924
2023-03-05T05:36:46.396Z,23.79999924
2023-03-05T05:37:47.448Z,25.89999962
2023-03-05T05:38:48.259Z,24.70000076
2023-03-05T05:39:49.059Z,27.39999962
2023-03-05T05:40:49.987Z,25
2023-03-05T05:41:50.940Z,25.10000038
2023-03-05T05:42:52.352Z,25.79999924
2023-03-05T05:44:24.515Z,23.89999962
2023-03-05T05:45:25.562Z,25.70000076
2023-03-05T05:46:26.450Z,24.5
2023-03-05T05:47:28.264Z,26.60000038
2023-03-05T05:48:29.228Z,24.79999924
2023-03-05T05:49:30.147Z,24.5
2023-03-05T05:50:31.027Z,25.29999924
2023-03-05T05:51:32.028Z,25.29999924
2023-03-05T05:52:32.937Z,24.89999962
2023-03-05T05:53:34.724Z,26.89999962
2023-03-05T05:54:35.660Z,25.10000038
2023-03-05T05:55:36.609Z,25.60000038
2023-03-05T05:56:38.135Z,25.20000076
2023-03-05T05:57:39.100Z,24
2023-03-05T05:58:40.079Z,24.89999962
2023-03-05T05:59:41.309Z,26.39999962
2023-03-05T06:00:42.116Z,25.79999924
2023-03-05T06:01:43.055Z,24.39999962
2023-03-05T06:02:44.119Z,24.70000076
2023-03-05T06:03:45.680Z,25.60000038
2023-03-05T06:04:47.591Z,24.79999924
2023-03-05T06:05:48.485Z,27.10000038
2023-03-05T06:06:49.361Z,23.79999924
2023-03-05T06:07:50.218Z,27.60000038
2023-03-05T06:08:51.156Z,24.10000038
2023-03-05T06:10:22.946Z,24.5
2023-03-05T06:11:23.854Z,25.60000038
2023-03-05T06:12:24.688Z,23.70000076
2023-03-05T06:13:26.177Z,26.10000038
2023-03-05T06:14:27.163Z,26.5
2023-03-05T06:15:28.092Z,25.20000076
2023-03-05T06:16:29.222Z,24.70000076
2023-03-05T06:17:30.899Z,24.79999924
2023-03-05T06:18:31.533Z,25.29999924
2023-03-05T06:19:32.502Z,26.20000076
2023-03-05T06:20:33.452Z,24.89999962
2023-03-05T06:21:34.409Z,25.29999924
2023-03-05T06:22:35.359Z,25.89999962
2023-03-05T06:23:37.182Z,24.60000038
2023-03-05T06:24:38.226Z,26.79999924
2023-03-05T06:25:39.060Z,25.70000076
2023-03-05T06:26:39.954Z,26.20000076
2023-03-05T06:27:41.096Z,24.70000076
2023-03-05T06:28:41.999Z,25.29999924
2023-03-05T06:29:42.893Z,26.10000038
2023-03-05T06:30:43.791Z,24.5
2023-03-05T06:31:44.668Z,26.10000038
2023-03-05T06:32:45.625Z,26.70000076
2023-03-05T06:33:47.137Z,25.60000038
2023-03-05T06:34:48.006Z,26.10000038
2023-03-05T06:35:49.078Z,23.70000076
2023-03-05T06:36:50.035Z,25.10000038
2023-03-05T06:37:50.993Z,23.60000038
2023-03-05T06:39:22.567Z,26.10000038
2023-03-05T06:40:23.519Z,24.70000076
2023-03-05T06:41:24.351Z,25
2023-03-05T06:42:25.311Z,24.10000038
2023-03-05T06:43:27.178Z,26.39999962
2023-03-05T06:44:28.656Z,25.5
2023-03-05T06:45:29.536Z,25.10000038
2023-03-05T06:46:30.471Z,24.39999962
2023-03-05T06:47:31.427Z,24.39999962
2023-03-05T06:48:33.196Z,25.10000038
2023-03-05T06:49:34.143Z,24.10000038
2023-03-05T06:50:35.071Z,25.20000076
2023-03-05T06:51:36.637Z,25.20000076
2023-03-05T06:52:37.658Z,25.10000038
2023-03-05T06:53:39.172Z,24.20000076
2023-03-05T06:54:40.114Z,24.70000076
2023-03-05T06:55:41.161Z,23.20000076
2023-03-05T06:56:42.007Z,24.60000038
2023-03-05T06:57:42.880Z,23.39999962
2023-03-05T06:58:43.847Z,25
2023-03-05T06:59:44.786Z,23.89999962
2023-03-05T07:00:45.653Z,23.70000076
2023-03-05T07:01:47.137Z,24.70000076
2023-03-05T07:02:48.328Z,23.29999924
2023-03-05T07:03:49.673Z,24.89999962
2023-03-05T07:04:50.626Z,26.39999962
2023-03-05T07:06:22.113Z,24.39999962
2023-03-05T07:07:22.919Z,24.39999962
2023-03-05T07:08:24.638Z,23.5
2023-03-05T07:09:25.588Z,25.70000076
2023-03-05T07:10:26.574Z,23.70000076
2023-03-05T07:11:27.554Z,25.79999924
2023-03-05T07:12:28.295Z,24.70000076
2023-03-05T07:13:29.092Z,25
2023-03-05T07:14:30.683Z,24.29999924
2023-03-05T07:15:31.621Z,25.39999962
2023-03-05T07:16:32.556Z,24.39999962
2023-03-05T07:17:33.387Z,24.39999962
2023-03-05T07:18:35.094Z,23.70000076
2023-03-05T07:19:35.881Z,25
2023-03-05T07:20:36.826Z,26
2023-03-05T07:21:39.909Z,24.89999962
2023-03-05T07:22:38.619Z,25.29999924
2023-03-05T07:23:39.447Z,24.70000076
2023-03-05T07:24:41.118Z,24.70000076
2023-03-05T07:25:42.077Z,27
2023-03-05T07:26:43.743Z,26.20000076
2023-03-05T07:27:44.531Z,27.70000076
2023-03-05T07:28:45.302Z,24.5
2023-03-05T07:29:46.174Z,24.20000076
2023-03-05T07:30:47.218Z,24.79999924
2023-03-05T07:31:48.191Z,25.29999924
2023-03-05T07:32:49.062Z,25.10000038
2023-03-05T07:33:50.667Z,24.29999924
2023-03-05T07:35:21.903Z,27.10000038
2023-03-05T07:36:22.831Z,24.89999962
2023-03-05T07:37:23.767Z,25.5
2023-03-05T07:38:24.573Z,25.60000038
2023-03-05T07:39:25.410Z,25.29999924
2023-03-05T07:40:26.197Z,24.5
2023-03-05T07:41:27.194Z,24.5
2023-03-05T07:42:28.198Z,24.89999962
2023-03-05T07:43:29.089Z,24.79999924
2023-03-05T07:44:30.519Z,24.70000076
2023-03-05T07:45:31.416Z,25.39999962
2023-03-05T07:46:33.275Z,24.20000076
2023-03-05T07:47:34.164Z,25.29999924
2023-03-05T07:48:35.092Z,24.29999924
2023-03-05T07:49:36.022Z,24.70000076
2023-03-05T07:50:36.791Z,26.5
2023-03-05T07:51:38.675Z,25.10000038
2023-03-05T07:52:39.688Z,23.5
2023-03-05T07:53:40.815Z,25.29999924
2023-03-05T07:54:42.615Z,22.89999962
2023-03-05T07:55:43.497Z,25.29999924
2023-03-05T07:56:44.249Z,26
2023-03-05T07:57:45.169Z,24.89999962
2023-03-05T07:58:45.920Z,26
2023-03-05T07:59:46.765Z,25.20000076
2023-03-05T08:00:47.633Z,25.39999962
2023-03-05T08:01:48.438Z,24.20000076
2023-03-05T08:02:49.551Z,24.29999924
2023-03-05T08:03:50.869Z,23.89999962
2023-03-05T08:05:23.167Z,24.20000076
2023-03-05T08:06:24.042Z,26.10000038
2023-03-05T08:07:24.933Z,24.5
2023-03-05T08:08:25.754Z,25.20000076
2023-03-05T08:09:26.577Z,24.89999962
2023-03-05T08:10:27.391Z,23.70000076
2023-03-05T08:11:28.209Z,23.20000076
2023-03-05T08:12:29.138Z,23.5
2023-03-05T08:13:30.052Z,24.39999962
2023-03-05T08:14:31.712Z,24.60000038
2023-03-05T08:15:32.671Z,23.5
2023-03-05T08:16:33.552Z,24.79999924
2023-03-05T08:17:34.518Z,24.60000038
2023-03-05T08:18:36.176Z,25.60000038
2023-03-05T08:19:36.919Z,24.60000038
2023-03-05T08:20:37.787Z,25.29999924
2023-03-05T08:21:38.764Z,25.5
2023-03-05T08:22:40.184Z,25.60000038
2023-03-05T08:23:41.089Z,24.89999962
2023-03-05T08:24:42.630Z,25
2023-03-05T08:25:43.646Z,27
2023-03-05T08:26:44.578Z,26.10000038
2023-03-05T08:27:45.481Z,24.79999924
2023-03-05T08:28:46.486Z,25.10000038
2023-03-05T08:29:47.428Z,26.60000038
2023-03-05T08:30:48.475Z,25.10000038
2023-03-05T08:31:49.557Z,26.60000038
2023-03-05T08:33:21.226Z,24.79999924
2023-03-05T08:34:22.623Z,26.89999962
2023-03-05T08:35:23.535Z,28.10000038
2023-03-05T08:36:24.354Z,26
2023-03-05T08:37:25.438Z,25.70000076
2023-03-05T08:38:26.293Z,25.5
2023-03-05T08:39:27.198Z,26.79999924
2023-03-05T08:40:28.063Z,24.60000038
2023-03-05T08:41:29.102Z,24.70000076
2023-03-05T08:42:30.028Z,24.89999962
2023-03-05T08:43:30.984Z,27.60000038
2023-03-05T08:44:32.735Z,26.70000076
2023-03-05T08:45:33.528Z,25.20000076
2023-03-05T08:46:34.417Z,25.10000038
2023-03-05T08:47:35.172Z,26.79999924
2023-03-05T08:48:36.643Z,26
2023-03-05T08:49:37.545Z,26.79999924
2023-03-05T08:50:39.089Z,27.5
2023-03-05T08:51:39.243Z,24.60000038
2023-03-05T08:52:40.198Z,27.60000038
2023-03-05T08:53:41.218Z,26
2023-03-05T08:54:43.288Z,27.39999962
2023-03-05T08:55:44.329Z,26.39999962
2023-03-05T08:56:44.863Z,26.29999924
2023-03-05T08:57:45.744Z,25.70000076
2023-03-05T08:58:46.656Z,26.10000038
2023-03-05T08:59:48.120Z,24.89999962
2023-03-05T09:00:48.950Z,25.39999962
2023-03-05T09:01:50.304Z,24.10000038
2023-03-05T09:03:21.655Z,26.20000076
2023-03-05T09:04:22.599Z,25.10000038
2023-03-05T09:05:24.473Z,27.60000038
2023-03-05T09:06:25.418Z,24.5
2023-03-05T09:07:27.059Z,24.29999924
2023-03-05T09:08:27.907Z,24.60000038
2023-03-05T09:09:28.844Z,25.10000038
2023-03-05T09:10:29.797Z,26.20000076
2023-03-05T09:11:30.678Z,26
2023-03-05T09:12:31.521Z,24.60000038
2023-03-05T09:13:32.332Z,24.60000038
2023-03-05T09:14:34.185Z,25.20000076
2023-03-05T09:15:35.704Z,24.39999962
2023-03-05T09:16:36.704Z,25.60000038
2023-03-05T09:17:37.544Z,26.10000038
2023-03-05T09:18:39.224Z,24.89999962
2023-03-05T09:19:40.116Z,24.89999962
2023-03-05T09:20:41.167Z,23.79999924
2023-03-05T09:21:42.667Z,27.79999924
2023-03-05T09:22:43.472Z,26
2023-03-05T09:23:44.403Z,22.79999924
2023-03-05T09:24:46.168Z,23.20000076
2023-03-05T09:25:47.034Z,23.70000076
2023-03-05T09:26:47.703Z,25.70000076
2023-03-05T09:27:48.504Z,25.29999924
2023-03-05T09:29:20.648Z,23.79999924
2023-03-05T09:30:22.224Z,23.60000038
2023-03-05T09:31:23.276Z,24.79999924
2023-03-05T09:32:24.091Z,24.20000076
2023-03-05T09:33:25.026Z,27.39999962
2023-03-05T09:34:25.904Z,24.39999962
2023-03-05T09:35:27.615Z,23.89999962
2023-03-05T09:36:29.276Z,23.5
2023-03-05T09:37:30.702Z,25.39999962
2023-03-05T09:38:31.642Z,25
2023-03-05T09:39:33.159Z,23.79999924
2023-03-05T09:40:33.991Z,24.89999962
2023-03-05T09:41:35.693Z,24.39999962
2023-03-05T09:42:37.149Z,26.10000038
2023-03-05T09:43:38.139Z,27.60000038
2023-03-05T09:44:38.983Z,24.5
2023-03-05T09:45:41.040Z,29.39999962
2023-03-05T09:46:42.133Z,26.79999924
2023-03-05T09:47:43.017Z,25.5
2023-03-05T09:48:44.642Z,24.89999962
2023-03-05T09:49:45.572Z,25.5
2023-03-05T09:50:46.346Z,23.70000076
2023-03-05T09:51:47.118Z,23.39999962
2023-03-05T09:52:48.422Z,23.20000076
2023-03-05T09:53:49.821Z,24.79999924
2023-03-05T09:55:22.160Z,23.5
2023-03-05T09:56:22.909Z,24
2023-03-05T09:57:23.813Z,24.10000038
2023-03-05T09:58:24.719Z,23
2023-03-05T09:59:26.591Z,23.79999924
2023-03-05T10:00:27.359Z,25.20000076
2023-03-05T10:01:29.139Z,22.79999924
2023-03-05T10:02:29.953Z,22.5
2023-03-05T10:03:31.730Z,23.20000076
2023-03-05T10:04:33.163Z,25
2023-03-05T10:05:34.613Z,24.70000076
2023-03-05T10:06:35.425Z,24.60000038
2023-03-05T10:07:36.324Z,24.79999924
2023-03-05T10:08:37.329Z,25.5
2023-03-05T10:09:39.138Z,22.60000038
2023-03-05T10:10:39.967Z,22.10000038
2023-03-05T10:11:41.142Z,24.20000076
2023-03-05T10:12:42.993Z,25.5
2023-03-05T10:13:43.653Z,23.10000038
2023-03-05T10:14:44.590Z,24.89999962
2023-03-05T10:15:46.155Z,24.89999962
2023-03-05T10:16:46.965Z,23.70000076
2023-03-05T10:17:48.724Z,23
2023-03-05T10:19:21.195Z,23.70000076
2023-03-05T10:20:22.336Z,24.60000038
2023-03-05T10:21:23.098Z,24.20000076
2023-03-05T10:22:23.925Z,25.60000038
2023-03-05T10:23:24.920Z,23.39999962
2023-03-05T10:24:25.813Z,24
2023-03-05T10:25:27.792Z,24.29999924
2023-03-05T10:26:28.774Z,24.20000076
2023-03-05T10:27:29.799Z,23.20000076
2023-03-05T10:28:30.718Z,24.79999924
2023-03-05T10:29:32.600Z,24
2023-03-05T10:30:33.474Z,23.5
2023-03-05T10:31:34.391Z,24.39999962
2023-03-05T10:32:36.133Z,23.70000076
2023-03-05T10:33:37.133Z,24.10000038
2023-03-05T10:34:38.005Z,24.5
2023-03-05T10:35:39.758Z,24.29999924
2023-03-05T10:36:40.664Z,25.39999962
2023-03-05T10:37:41.493Z,23.39999962
2023-03-05T10:38:42.535Z,25.60000038
2023-03-05T10:39:43.435Z,23.89999962
2023-03-05T10:40:45.165Z,23.29999924
2023-03-05T10:41:46.090Z,24.29999924
2023-03-05T10:42:46.878Z,23.20000076
2023-03-05T10:43:47.883Z,22.5
2023-03-05T10:44:49.228Z,23.70000076
2023-03-05T10:46:21.572Z,22.10000038
2023-03-05T10:47:23.112Z,24
2023-03-05T10:48:24.124Z,23.29999924
2023-03-05T10:49:25.709Z,23.70000076
2023-03-05T10:50:26.571Z,23.39999962
2023-03-05T10:51:27.394Z,24.10000038
2023-03-05T10:52:28.327Z,22.89999962
2023-03-05T10:53:29.183Z,24.29999924
2023-03-05T10:54:30.718Z,23.89999962
2023-03-05T10:55:32.228Z,23.39999962
2023-03-05T10:56:33.019Z,23.20000076
2023-03-05T10:57:33.787Z,23.5
2023-03-05T10:58:34.757Z,22.10000038
2023-03-05T10:59:35.767Z,22.10000038
2023-03-05T11:00:36.603Z,22.79999924
2023-03-05T11:01:37.752Z,23.60000038
2023-03-05T11:02:38.514Z,22.89999962
2023-03-05T11:03:39.474Z,22
2023-03-05T11:04:40.447Z,23.10000038
2023-03-05T11:05:42.306Z,22.5
2023-03-05T11:06:44.181Z,23
2023-03-05T11:07:45.005Z,23.20000076
2023-03-05T11:08:45.852Z,23.60000038
2023-03-05T11:09:47.730Z,23.79999924
2023-03-05T11:10:49.088Z,25.89999962
2023-03-05T11:12:20.424Z,24.29999924
2023-03-05T11:13:21.231Z,23.70000076
2023-03-05T11:14:22.127Z,24.29999924
2023-03-05T11:15:23.079Z,23.5
2023-03-05T11:16:24.647Z,23.60000038
2023-03-05T11:17:25.424Z,23.70000076
2023-03-05T11:18:26.213Z,23.60000038
2023-03-05T11:19:27.557Z,22.10000038
2023-03-05T11:20:28.436Z,23.29999924
2023-03-05T11:21:29.360Z,23.60000038
2023-03-05T11:22:30.233Z,23.79999924
2023-03-05T11:23:32.094Z,23.39999962
2023-03-05T11:24:32.856Z,23.10000038
2023-03-05T11:25:33.727Z,24.60000038
2023-03-05T11:26:34.625Z,25.10000038
2023-03-05T11:27:36.124Z,24.70000076
2023-03-05T11:28:36.963Z,23.29999924
2023-03-05T11:29:37.784Z,22.89999962
2023-03-05T11:30:38.820Z,23.79999924
2023-03-05T11:31:39.772Z,23
2023-03-05T11:32:40.948Z,23.79999924
2023-03-05T11:33:42.696Z,23.5
2023-03-05T11:34:43.572Z,23.70000076
2023-03-05T11:35:45.679Z,23.79999924